createdAt,value
2019-05-17T00:01:20.639Z,3.43
2019-05-17T00:03:50.767Z,3.90
2019-05-17T00:06:20.979Z,3.10
2019-05-17T00:08:51.025Z,3.63
2019-05-17T00:11:21.115Z,3.37
2019-05-17T00:13:51.152Z,3.70
2019-05-17T00:16:21.218Z,3.93
2019-05-17T00:18:51.369Z,3.97
2019-05-17T00:21:21.611Z,4.13
2019-05-17T00:23:51.882Z,3.63
2019-05-17T00:26:22.106Z,3.10
2019-05-17T00:28:52.153Z,4.07
2019-05-17T00:31:22.186Z,4.70
2019-05-17T00:33:52.377Z,4.20
2019-05-17T00:36:22.506Z,4.70
2019-05-17T00:38:52.479Z,3.90
2019-05-17T00:41:22.447Z,4.47
2019-05-17T00:43:52.388Z,4.60
2019-05-17T00:46:22.628Z,4.37
2019-05-17T00:48:52.625Z,4.70
2019-05-17T00:51:22.676Z,4.50
2019-05-17T00:53:52.869Z,4.50
2019-05-17T00:56:22.867Z,4.10
2019-05-17T00:59:57.054Z,4.07
2019-05-17T01:02:27.149Z,3.80
2019-05-17T01:04:57.210Z,4.37
2019-05-17T01:07:27.142Z,4.73
2019-05-17T01:09:57.247Z,4.43
2019-05-17T01:12:27.362Z,4.53
2019-05-17T01:14:58.253Z,4.73
2019-05-17T01:17:28.598Z,4.70
2019-05-17T01:19:58.670Z,5.13
2019-05-17T01:22:28.817Z,3.87
2019-05-17T01:24:58.743Z,4.60
2019-05-17T01:27:28.779Z,4.80
2019-05-17T01:29:58.832Z,4.27
2019-05-17T01:32:28.939Z,4.80
2019-05-17T01:34:58.956Z,5.10
2019-05-17T01:37:29.002Z,5.03
2019-05-17T01:39:59.016Z,4.73
2019-05-17T01:42:29.402Z,4.70
2019-05-17T01:44:59.411Z,4.87
2019-05-17T01:47:29.504Z,5.30
2019-05-17T01:49:59.494Z,4.83
2019-05-17T01:52:29.614Z,5.47
2019-05-17T01:54:59.630Z,6.07
2019-05-17T01:57:29.756Z,6.03
2019-05-17T01:59:59.840Z,5.97
2019-05-17T02:02:36.559Z,5.87
2019-05-17T02:05:07.343Z,6.80
2019-05-17T02:07:37.511Z,6.30
2019-05-17T02:10:08.308Z,7.10
2019-05-17T02:12:38.455Z,7.47
2019-05-17T02:15:10.172Z,5.93
2019-05-17T02:17:40.331Z,6.07
2019-05-17T02:20:11.415Z,6.80
2019-05-17T02:22:41.432Z,6.37
2019-05-17T02:25:12.091Z,7.20
2019-05-17T02:27:44.718Z,7.73
2019-05-17T02:30:16.150Z,6.83
2019-05-17T02:32:47.534Z,7.93
2019-05-17T02:35:17.625Z,7.77
2019-05-17T02:37:47.850Z,7.37
2019-05-17T02:40:18.514Z,7.67
2019-05-17T02:42:48.678Z,8.13
2019-05-17T02:45:23.191Z,7.83
2019-05-17T02:47:53.770Z,7.73
2019-05-17T02:50:23.779Z,7.93
2019-05-17T02:52:53.885Z,7.60
2019-05-17T02:55:24.116Z,6.70
2019-05-17T02:57:54.226Z,7.70
2019-05-17T03:00:24.501Z,7.83
2019-05-17T03:02:54.619Z,7.47
2019-05-17T03:05:24.752Z,7.17
2019-05-17T03:07:55.057Z,7.40
2019-05-17T03:10:29.014Z,7.30
2019-05-17T03:12:57.407Z,7.90
2019-05-17T03:15:27.753Z,8.37
2019-05-17T03:17:59.160Z,7.63
2019-05-17T03:20:32.386Z,8.17
2019-05-17T03:23:04.020Z,7.93
2019-05-17T03:25:33.782Z,8.70
2019-05-17T03:28:04.353Z,8.27
2019-05-17T03:30:37.048Z,8.40
2019-05-17T03:33:08.250Z,8.43
2019-05-17T03:35:39.025Z,8.10
2019-05-17T03:38:09.080Z,8.20
2019-05-17T03:41:03.322Z,8.97
2019-05-17T03:43:13.863Z,9.47
2019-05-17T03:45:42.913Z,8.27
2019-05-17T03:48:13.143Z,10.08
2019-05-17T03:50:43.759Z,8.30
2019-05-17T03:53:14.110Z,8.77
2019-05-17T03:55:44.353Z,8.30
2019-05-17T03:58:14.575Z,8.20
2019-05-17T04:00:44.532Z,8.63
2019-05-17T04:03:14.670Z,8.50
2019-05-17T04:05:44.820Z,7.33
2019-05-17T04:08:14.956Z,8.20
2019-05-17T04:10:45.149Z,8.07
2019-05-17T04:13:15.272Z,8.67
2019-05-17T04:15:45.215Z,8.53
2019-05-17T04:18:15.242Z,7.87
2019-05-17T04:20:45.351Z,8.30
2019-05-17T04:23:15.439Z,7.60
2019-05-17T04:25:45.462Z,9.10
2019-05-17T04:28:15.683Z,8.07
2019-05-17T04:30:45.902Z,8.27
2019-05-17T04:33:16.123Z,8.13
2019-05-17T04:35:46.209Z,9.60
2019-05-17T04:38:16.261Z,9.40
2019-05-17T04:40:46.444Z,8.50
2019-05-17T04:43:17.295Z,10.17
2019-05-17T04:45:47.418Z,9.70
2019-05-17T04:48:17.609Z,9.13
2019-05-17T04:50:47.806Z,10.03
2019-05-17T04:53:18.132Z,10.13
2019-05-17T04:55:48.556Z,10.40
2019-05-17T04:58:23.204Z,10.10
2019-05-17T05:00:53.774Z,10.27
2019-05-17T05:03:24.083Z,10.57
2019-05-17T05:05:54.971Z,10.27
2019-05-17T05:08:26.840Z,10.17
2019-05-17T05:10:57.853Z,11.07
2019-05-17T05:13:27.979Z,10.47
2019-05-17T05:15:58.162Z,10.83
2019-05-17T05:18:32.692Z,12.10
2019-05-17T05:21:03.639Z,12.00
2019-05-17T05:23:34.125Z,10.17
2019-05-17T05:26:04.265Z,11.03
2019-05-17T05:28:34.215Z,10.33
2019-05-17T05:31:04.403Z,10.07
2019-05-17T05:33:34.464Z,11.87
2019-05-17T05:36:04.721Z,11.50
2019-05-17T05:38:34.767Z,11.57
2019-05-17T05:41:05.228Z,9.67
2019-05-17T05:43:35.467Z,10.23
2019-05-17T05:46:06.915Z,10.50
2019-05-17T05:48:37.068Z,11.33
2019-05-17T05:51:07.514Z,10.97
2019-05-17T05:53:37.766Z,11.37
2019-05-17T05:56:08.028Z,11.07
2019-05-17T05:58:38.051Z,10.47
2019-05-17T06:01:08.285Z,11.43
2019-05-17T06:03:38.305Z,11.10
2019-05-17T06:06:08.410Z,11.90
2019-05-17T06:08:38.453Z,11.47
2019-05-17T06:11:08.641Z,11.50
2019-05-17T06:13:38.631Z,10.80
2019-05-17T06:16:08.816Z,9.67
2019-05-17T06:18:38.926Z,10.17
2019-05-17T06:21:09.001Z,10.63
2019-05-17T06:23:42.380Z,10.73
2019-05-17T06:26:12.625Z,10.37
2019-05-17T06:28:43.212Z,10.30
2019-05-17T06:31:15.175Z,9.73
2019-05-17T06:33:45.578Z,9.83
2019-05-17T06:36:18.398Z,10.00
2019-05-17T06:38:48.435Z,10.77
2019-05-17T06:41:18.677Z,9.60
2019-05-17T06:43:48.878Z,10.10
2019-05-17T06:46:18.978Z,9.37
2019-05-17T06:48:48.975Z,9.37
2019-05-17T06:51:19.123Z,10.40
2019-05-17T06:53:49.220Z,9.27
2019-05-17T06:56:19.424Z,8.90
2019-05-17T06:58:49.533Z,9.07
2019-05-17T07:01:19.741Z,9.57
2019-05-17T07:03:49.872Z,8.93
2019-05-17T07:06:21.766Z,8.80
2019-05-17T07:08:52.181Z,9.33
2019-05-17T07:11:22.418Z,8.45
2019-05-17T07:13:52.696Z,7.83
2019-05-17T07:16:23.131Z,7.97
2019-05-17T07:18:53.125Z,7.60
2019-05-17T07:21:23.261Z,7.95
2019-05-17T07:23:53.362Z,7.90
2019-05-17T07:26:23.757Z,7.85
2019-05-17T07:28:53.838Z,7.42
2019-05-17T07:31:24.356Z,7.70
2019-05-17T07:33:54.709Z,7.65
2019-05-17T07:36:24.827Z,7.25
2019-05-17T07:38:54.864Z,7.37
2019-05-17T07:41:24.888Z,7.25
2019-05-17T07:43:55.199Z,8.35
2019-05-17T07:46:25.259Z,7.05
2019-05-17T07:48:56.596Z,7.28
2019-05-17T07:51:26.776Z,7.15
2019-05-17T07:53:56.869Z,6.62
2019-05-17T07:56:26.919Z,8.00
2019-05-17T07:58:57.351Z,6.90
2019-05-17T08:01:29.534Z,6.90
2019-05-17T08:04:00.571Z,6.97
2019-05-17T08:06:31.218Z,7.05
2019-05-17T08:09:04.407Z,6.70
2019-05-17T08:11:33.628Z,6.65
2019-05-17T08:14:03.711Z,5.95
2019-05-17T08:16:33.883Z,6.45
2019-05-17T08:19:03.970Z,6.83
2019-05-17T08:21:34.095Z,6.55
2019-05-17T08:24:10.374Z,6.58
2019-05-17T08:26:40.480Z,6.65
2019-05-17T08:29:10.734Z,6.17
2019-05-17T08:31:40.853Z,5.75
2019-05-17T08:34:10.961Z,6.20
2019-05-17T08:36:41.243Z,5.42
2019-05-17T08:39:11.607Z,5.78
2019-05-17T08:41:41.926Z,6.30
2019-05-17T08:44:12.464Z,4.65
2019-05-17T08:46:42.603Z,5.20
2019-05-17T08:49:13.191Z,5.37
2019-05-17T08:51:43.215Z,5.12
2019-05-17T08:54:13.199Z,4.78
2019-05-17T08:56:43.524Z,4.65
2019-05-17T08:59:13.536Z,4.72
2019-05-17T09:01:43.609Z,5.67
2019-05-17T09:04:13.633Z,5.47
2019-05-17T09:06:43.759Z,4.95
2019-05-17T09:09:14.145Z,5.55
2019-05-17T09:11:44.207Z,5.60
2019-05-17T09:14:14.163Z,5.95
2019-05-17T09:16:44.104Z,4.92
2019-05-17T09:19:14.118Z,5.60
2019-05-17T09:21:44.121Z,5.30
2019-05-17T09:24:14.366Z,5.70
2019-05-17T09:26:45.135Z,5.67
2019-05-17T09:29:15.159Z,5.53
2019-05-17T09:31:45.259Z,5.35
2019-05-17T09:34:15.417Z,5.72
2019-05-17T09:36:45.759Z,5.05
2019-05-17T09:39:16.191Z,4.40
2019-05-17T09:41:46.233Z,5.78
2019-05-17T09:44:16.671Z,6.30
2019-05-17T09:46:46.681Z,5.05
2019-05-17T09:49:19.157Z,4.80
2019-05-17T09:51:49.699Z,5.00
2019-05-17T09:54:20.045Z,5.10
2019-05-17T09:56:49.957Z,5.28
2019-05-17T09:59:20.438Z,5.72
2019-05-17T10:01:50.669Z,4.55
2019-05-17T10:04:21.068Z,5.42
2019-05-17T10:06:51.404Z,5.95
2019-05-17T10:09:21.714Z,4.67
2019-05-17T10:11:51.749Z,4.70
2019-05-17T10:14:27.689Z,5.62
2019-05-17T10:16:53.390Z,5.15
2019-05-17T10:19:23.735Z,5.03
2019-05-17T10:21:54.103Z,5.17
2019-05-17T10:24:35.942Z,4.70
2019-05-17T10:26:56.004Z,4.87
2019-05-17T10:29:26.170Z,5.17
2019-05-17T10:31:56.220Z,5.75
2019-05-17T10:34:26.314Z,5.53
2019-05-17T10:36:56.261Z,5.50
2019-05-17T10:39:26.342Z,4.87
2019-05-17T10:41:56.527Z,5.08
2019-05-17T10:44:41.004Z,4.08
2019-05-17T10:46:58.253Z,4.97
2019-05-17T10:49:29.482Z,5.47
2019-05-17T10:52:00.006Z,5.67
2019-05-17T10:54:30.258Z,4.72
2019-05-17T10:57:00.203Z,4.37
2019-05-17T10:59:30.197Z,4.83
2019-05-17T11:02:00.195Z,3.95
2019-05-17T11:04:30.277Z,4.87
2019-05-17T11:07:00.360Z,4.33
2019-05-17T11:09:31.068Z,4.75
2019-05-17T11:12:01.746Z,4.87
2019-05-17T11:14:31.714Z,4.65
2019-05-17T11:17:01.789Z,4.53
2019-05-17T11:19:31.882Z,4.08
2019-05-17T11:22:02.285Z,4.65
2019-05-17T11:24:32.459Z,4.42
2019-05-17T11:27:02.594Z,4.80
2019-05-17T11:29:32.604Z,4.53
2019-05-17T11:32:02.757Z,4.25
2019-05-17T11:34:32.959Z,4.00
2019-05-17T11:37:02.971Z,4.15
2019-05-17T11:39:32.995Z,4.17
2019-05-17T11:42:03.137Z,3.72
2019-05-17T11:44:33.455Z,4.53
2019-05-17T11:47:03.818Z,3.90
2019-05-17T11:49:33.861Z,3.62
2019-05-17T11:52:04.394Z,3.00
2019-05-17T11:54:34.732Z,3.75
2019-05-17T11:57:04.886Z,3.62
2019-05-17T11:59:34.850Z,3.42
2019-05-17T12:02:05.140Z,3.22
2019-05-17T12:04:35.291Z,3.37
2019-05-17T12:07:05.645Z,3.00
2019-05-17T12:09:37.750Z,2.77
2019-05-17T12:12:07.601Z,3.58
2019-05-17T12:14:38.222Z,3.08
2019-05-17T12:17:08.458Z,3.00
2019-05-17T12:19:41.021Z,3.05
2019-05-17T12:22:12.114Z,2.90
2019-05-17T12:24:49.053Z,2.62
2019-05-17T12:27:20.029Z,3.62
2019-05-17T12:29:51.869Z,3.52
2019-05-17T12:32:24.178Z,3.00
2019-05-17T12:34:56.127Z,2.95
2019-05-17T12:37:26.794Z,2.72
2019-05-17T12:39:57.872Z,2.15
2019-05-17T12:42:28.104Z,2.67
2019-05-17T12:44:59.746Z,3.52
2019-05-17T13:08:49.334Z,2.62
2019-05-17T13:09:39.990Z,2.17
2019-05-17T13:12:10.129Z,2.27
2019-05-17T13:14:40.261Z,2.52
2019-05-17T13:17:19.678Z,2.52
2019-05-17T13:19:50.029Z,2.40
2019-05-17T13:22:22.751Z,2.30
2019-05-17T13:24:53.334Z,2.75
2019-05-17T13:27:23.679Z,2.55
2019-05-17T13:29:58.083Z,2.60
2019-05-17T13:32:30.268Z,2.42
2019-05-17T13:35:03.051Z,2.47
2019-05-17T13:37:36.673Z,2.17
2019-05-17T13:40:25.422Z,2.40
2019-05-17T13:47:48.097Z,1.92
2019-05-17T13:50:56.500Z,2.22
2019-05-17T13:53:27.293Z,2.40
2019-05-17T13:56:01.237Z,2.40
2019-05-17T13:58:37.823Z,2.10
2019-05-17T14:01:11.802Z,1.75
2019-05-17T14:03:45.244Z,1.95
2019-05-17T14:06:15.704Z,2.40
2019-05-17T14:08:46.616Z,1.83
2019-05-17T14:11:18.041Z,1.75
2019-05-17T14:13:51.117Z,1.98
2019-05-17T14:16:27.081Z,1.90
2019-05-17T14:18:57.374Z,1.90
2019-05-17T14:21:27.409Z,2.15
2019-05-17T14:23:57.696Z,2.27
2019-05-17T14:26:27.909Z,1.77
2019-05-17T14:28:58.349Z,1.97
2019-05-17T14:31:28.831Z,2.05
2019-05-17T14:34:03.342Z,1.90
2019-05-17T14:36:36.715Z,1.40
2019-05-17T14:39:08.348Z,1.05
2019-05-17T14:41:40.214Z,0.72
2019-05-17T14:44:10.261Z,0.90
2019-05-17T14:46:52.677Z,0.72
2019-05-17T14:49:25.944Z,0.55
2019-05-17T14:52:03.908Z,0.60
2019-05-17T14:54:41.592Z,0.60
2019-05-17T14:57:38.691Z,0.70
2019-05-17T15:00:09.902Z,0.68
2019-05-17T15:03:07.060Z,0.50
2019-05-17T15:05:45.178Z,0.68
2019-05-17T15:08:19.403Z,0.60
2019-05-17T15:10:53.607Z,0.70
2019-05-17T15:13:37.804Z,0.70
2019-05-17T15:16:11.696Z,0.60
2019-05-17T15:18:41.946Z,0.67
2019-05-17T15:21:11.950Z,1.00
2019-05-17T15:23:42.156Z,1.03
2019-05-17T15:26:15.884Z,1.20
2019-05-17T15:28:47.846Z,1.20
2019-05-17T15:31:18.015Z,0.80
2019-05-17T15:33:55.926Z,0.80
2019-05-17T15:36:26.492Z,0.75
2019-05-17T15:38:56.542Z,1.00
2019-05-17T15:41:26.771Z,0.78
2019-05-17T15:43:58.752Z,1.00
2019-05-17T15:46:34.296Z,0.90
2019-05-17T15:49:04.246Z,1.00
2019-05-17T15:51:35.735Z,1.00
2019-05-17T15:54:10.408Z,0.82
2019-05-17T15:56:45.409Z,0.80
2019-05-17T15:59:16.397Z,0.90
2019-05-17T16:01:49.232Z,0.90
2019-05-17T16:04:21.390Z,0.80
2019-05-17T16:07:59.053Z,0.80
2019-05-17T16:09:45.868Z,0.90
2019-05-17T16:12:17.962Z,1.22
2019-05-17T16:14:52.115Z,1.65
2019-05-17T16:17:22.332Z,1.07
2019-05-17T16:20:16.078Z,0.80
2019-05-17T16:22:40.460Z,0.90
2019-05-17T16:25:19.756Z,0.90
2019-05-17T16:27:49.943Z,0.80
2019-05-17T16:30:20.231Z,0.70
2019-05-17T16:32:51.491Z,0.70
2019-05-17T16:35:21.744Z,0.77
2019-05-17T16:37:52.221Z,0.83
2019-05-17T16:40:23.389Z,1.00
2019-05-17T16:42:53.996Z,0.70
2019-05-17T16:45:24.536Z,1.10
2019-05-17T16:47:54.915Z,1.23
2019-05-17T16:50:25.166Z,1.10
2019-05-17T16:53:05.476Z,1.00
2019-05-17T16:55:56.712Z,1.02
2019-05-17T17:03:16.480Z,1.10
2019-05-17T17:09:08.578Z,1.10
2019-05-17T17:12:16.298Z,1.13
2019-05-17T17:14:51.261Z,0.90
2019-05-17T17:17:22.591Z,0.83
2019-05-17T17:19:52.836Z,1.10
2019-05-17T17:22:25.177Z,1.07
2019-05-17T17:24:55.735Z,1.00
2019-05-17T17:27:25.949Z,1.23
2019-05-17T17:29:56.345Z,1.27
2019-05-17T17:32:26.457Z,1.30
2019-05-17T17:34:57.477Z,1.10
2019-05-17T17:37:30.012Z,1.30
2019-05-17T17:40:02.136Z,1.07
2019-05-17T17:42:33.048Z,1.27
2019-05-17T17:45:22.618Z,1.10
2019-05-17T17:47:55.648Z,1.20
2019-05-17T20:56:46.389Z,1.40
2019-05-17T20:59:18.847Z,1.30
2019-05-17T21:01:50.609Z,1.50
2019-05-17T21:04:23.913Z,1.50
2019-05-17T21:06:54.394Z,1.40
2019-05-17T21:09:24.524Z,1.40
2019-05-17T21:11:55.458Z,1.40
2019-05-17T21:14:25.582Z,1.60
2019-05-17T21:16:55.763Z,1.60
2019-05-17T21:19:28.913Z,1.97
2019-05-17T21:21:58.959Z,1.87
2019-05-17T21:24:29.003Z,2.10
2019-05-17T21:27:01.567Z,1.80
2019-05-17T21:29:35.208Z,2.10
2019-05-17T21:32:07.735Z,1.80
2019-05-17T21:34:38.474Z,2.30
2019-05-17T21:37:08.808Z,2.10
2019-05-17T21:39:45.635Z,1.97
2019-05-17T21:42:19.273Z,2.00
2019-05-17T21:44:52.925Z,1.77
2019-05-17T21:47:23.119Z,1.80
2019-05-17T21:49:53.246Z,1.67
2019-05-17T21:52:26.301Z,1.43
2019-05-17T21:54:56.293Z,1.20
2019-05-17T21:57:26.210Z,1.83
2019-05-17T21:59:56.079Z,1.50
2019-05-17T22:02:26.197Z,1.37
2019-05-17T22:04:56.115Z,1.70
2019-05-17T22:07:26.135Z,1.70
2019-05-17T22:09:56.122Z,1.70
2019-05-17T22:12:29.155Z,1.43
2019-05-17T22:14:59.028Z,1.40
2019-05-17T22:17:29.107Z,1.33
2019-05-17T22:19:59.221Z,1.30
2019-05-17T22:22:29.200Z,1.50
2019-05-17T22:24:59.156Z,1.57
2019-05-17T22:27:29.176Z,1.50
2019-05-17T22:29:59.115Z,1.40
2019-05-17T22:32:29.049Z,1.70
2019-05-17T22:34:59.523Z,1.30
2019-05-17T22:37:30.639Z,1.43
2019-05-17T22:40:00.610Z,1.30
2019-05-17T22:42:30.996Z,1.30
2019-05-17T22:45:01.051Z,1.90
2019-05-17T22:47:31.105Z,1.50
2019-05-17T22:50:00.969Z,1.37
2019-05-17T22:52:30.943Z,1.33
2019-05-17T22:55:00.822Z,1.37
2019-05-17T22:57:30.720Z,1.77
2019-05-17T23:00:00.940Z,1.43
2019-05-17T23:02:31.197Z,1.60
2019-05-17T23:05:15.657Z,1.60
2019-05-17T23:07:48.481Z,1.70
2019-05-17T23:10:19.329Z,2.00
2019-05-17T23:12:50.115Z,2.03
2019-05-17T23:15:21.376Z,1.73
2019-05-17T23:17:54.442Z,1.87
2019-05-17T23:20:24.925Z,2.00
2019-05-17T23:22:55.149Z,2.30
2019-05-17T23:25:25.986Z,2.43
2019-05-17T23:27:57.286Z,2.67
2019-05-17T23:30:28.616Z,2.40
2019-05-17T23:32:59.790Z,2.23
2019-05-17T23:35:30.730Z,2.30
2019-05-17T23:38:01.528Z,2.33
2019-05-17T23:40:31.577Z,2.00
2019-05-17T23:43:01.525Z,2.10
2019-05-17T23:45:31.568Z,2.30
2019-05-17T23:48:01.457Z,2.20
2019-05-17T23:50:31.452Z,2.47
2019-05-17T23:53:01.405Z,2.33
2019-05-17T23:55:31.478Z,2.00
2019-05-17T23:58:01.460Z,1.63
